Saint Barthelemy, St. Barthelemy

4:41 PM AST on October 25, 2014 (GMT -0400)
Lorient | Change Station
CLOSE
Current Station
Personal Weather Station
Location: Saint Barthélémy,
Elevation: 33 ft
Nearby Weather Stations

Elev 33 ft 17.91 °N, 62.82 °W | Updated 8 minutes ago

Partly Cloudy
Partly Cloudy
85.4 °F
Feels Like 93 °F
N
3.0
Wind Variable Wind from SE
Gusts 14.0 mph

Today
High -- | Low -- °F
--% Chance of Precip.
Yesterday
High -- | Low -- °F
Precip. -- in
6:07 AM 5:42 PM
Waxing Crescent, 4% visible
Pressure 29.86 in
Visibility 6.2 miles
Clouds Few 2000 ft
Heat Index 93 °F
Dew Point 74 °F
Humidity 69%
Rainfall 0.00 in
Snow Depth Not available.
UV 2 out of 12
Pollen Not available.
Air Quality Not available.
Flu Activity Not available.
METAR TNCM 252000Z 13009KT 9999 FEW020 30/24 Q1011 A2987 NOSIG

More Conditions Fewer Conditions

Pressure 29.86 in
Visibility 6.2 miles
Clouds Few 2000 ft
Heat Index 93 °F
Dew Point 74 °F
Humidity 69%
Rainfall 0.00 in
Snow Depth Not available.
UV 2 out of 12
Pollen Not available.
Air Quality Not available.
Flu Activity Not available.
METAR TNCM 252000Z 13009KT 9999 FEW020 30/24 Q1011 A2987 NOSIG

More Conditions Fewer Conditions

10-Day Weather Forecast

Almanac

Astronomy

Oct. 25, 2014 Rise Set
Actual Time 6:07 AM AST 5:42 PM AST
Civil Twilight 5:45 AM AST 6:05 PM AST
Nautical Twilight 5:20 AM AST 6:30 PM AST
Astronomical Twilight 4:54 AM AST 6:56 PM AST
Moon 7:32 AM AST 7:13 PM AST
Length of Visible Light 12h 19m
Length of Day
11h 35m
Tomorrow will be 0m 55s shorter.
Waxing Crescent, 4% of the Moon is Illuminated
Today
Waxing Crescent
Oct 30
First Quarter
Nov 6
Full
Nov 14
Last Quarter
Nov 22
New

Community

WunderPhotos

Upload Photos

1,764,989 photos uploaded!

Nearby

Snow Depth

Not available.

Earthquake Activity

City Distance Mag. Time & Date
No recent earthquake activity has been reported nearby.
Minimum magnitude displayed is 2.5.

Coastal Water Temperatures

Place Temperature
No Stations Reporting

Nearby Weather Stations